KLRU

Las Cruces International Airport

Las Cruces, New Mexico, USA
METAR KLRU 152335Z AUTO 14003KT 10SM CLR 15/M11 A3017 RMK AO2 T01481110
Observed Flight Rules
Nov-15 @ 23:35 UTC (10 minutes ago) Visual Flight Rules
Wind Visibility Clouds
140° at 3 knots 10 miles
  • Clear skies
Temperatures Readings
Current 15°C / 59°F
Dewpoint -11°C / 12°F
Humidity 16%
Altimeter 30.17" Hg
Pressure 1022 hPa
Elevation 1358
METAR KLRU 152335Z AUTO 14003KT 10SM CLR 15/M11 A3017 RMK AO2 T01481110
Observed Flight Rules
Nov-15 @ 23:35 UTC
(10 minutes ago)
VFR
Wind Visibility
140° at 3 knots 10 miles
Clouds
  • Clear skies
Temperature Dewpoint
15°C / 59°F -11°C / 12°F
Humidity Altimeter Pressure
16% 30.17" Hg 1022 hPa